createdAt,value
2016-12-28T00:00:45.070Z,59.43
2016-12-28T00:01:35.720Z,59.46
2016-12-28T00:02:40.094Z,59.45
2016-12-28T00:03:48.834Z,59.47
2016-12-28T00:04:51.639Z,59.47
2016-12-28T00:05:40.203Z,59.48
2016-12-28T00:06:55.562Z,59.52
2016-12-28T00:07:46.874Z,59.54
2016-12-28T00:08:45.920Z,59.52
2016-12-28T00:09:46.653Z,59.52
2016-12-28T00:10:44.370Z,59.52
2016-12-28T00:11:40.303Z,59.57
2016-12-28T00:12:45.638Z,59.55
2016-12-28T00:13:44.978Z,59.54
2016-12-28T00:14:45.449Z,59.57
2016-12-28T00:15:45.155Z,59.55
2016-12-28T00:16:45.259Z,59.56
2016-12-28T00:18:01.051Z,59.57
2016-12-28T00:18:45.105Z,59.59
2016-12-28T00:19:45.553Z,59.59
2016-12-28T00:20:53.574Z,59.59
2016-12-28T00:21:48.192Z,59.62
2016-12-28T00:22:49.776Z,59.64
2016-12-28T00:23:54.691Z,59.64
2016-12-28T00:24:56.242Z,59.65
2016-12-28T00:25:50.270Z,59.65
2016-12-28T00:26:48.673Z,59.67
2016-12-28T00:27:51.369Z,59.69
2016-12-28T00:28:49.716Z,59.68
2016-12-28T00:29:50.387Z,59.67
2016-12-28T00:30:50.386Z,59.69
2016-12-28T00:31:37.556Z,59.70
2016-12-28T00:32:45.799Z,59.69
2016-12-28T00:33:38.925Z,59.70
2016-12-28T00:34:46.074Z,59.70
2016-12-28T00:35:49.705Z,59.71
2016-12-28T00:36:47.216Z,59.70
2016-12-28T00:37:46.693Z,59.68
2016-12-28T00:38:57.413Z,59.68
2016-12-28T00:39:47.838Z,59.70
2016-12-28T00:40:56.777Z,59.73
2016-12-28T00:41:41.294Z,59.73
2016-12-28T00:42:47.503Z,59.71
2016-12-28T00:43:51.910Z,59.74
2016-12-28T00:44:40.871Z,59.77
2016-12-28T00:45:50.067Z,59.79
2016-12-28T00:46:45.724Z,59.84
2016-12-28T00:47:48.407Z,59.83
2016-12-28T00:48:51.794Z,59.82
2016-12-28T00:49:50.198Z,59.85
2016-12-28T00:50:43.329Z,59.88
2016-12-28T00:51:44.434Z,59.91
2016-12-28T00:52:38.075Z,59.88
2016-12-28T00:53:38.020Z,59.91
2016-12-28T00:54:40.977Z,59.91
2016-12-28T00:55:43.804Z,59.90
2016-12-28T00:56:39.850Z,59.93
2016-12-28T00:57:44.287Z,59.94
2016-12-28T00:58:45.041Z,59.99
2016-12-28T00:59:46.258Z,59.95
2016-12-28T01:00:42.533Z,59.97
2016-12-28T01:01:49.654Z,59.95
2016-12-28T01:02:44.738Z,59.97
2016-12-28T01:03:51.208Z,59.94
2016-12-28T01:04:52.409Z,59.94
2016-12-28T01:05:49.887Z,59.92
2016-12-28T01:06:44.308Z,59.93
2016-12-28T01:07:44.620Z,59.96
2016-12-28T01:08:38.933Z,59.94
2016-12-28T01:09:44.699Z,59.92
2016-12-28T01:11:00.610Z,59.93
2016-12-28T01:11:48.822Z,59.90
2016-12-28T01:12:56.022Z,59.95
2016-12-28T01:13:48.486Z,59.91
2016-12-28T01:14:52.565Z,59.94
2016-12-28T01:15:52.427Z,59.96
2016-12-28T01:16:40.464Z,59.94
2016-12-28T01:17:48.171Z,59.96
2016-12-28T01:18:54.900Z,59.95
2016-12-28T01:19:44.971Z,59.93
2016-12-28T01:20:44.158Z,59.96
2016-12-28T01:21:51.532Z,59.94
2016-12-28T01:22:38.427Z,59.95
2016-12-28T01:23:43.420Z,59.97
2016-12-28T01:24:44.886Z,59.94
2016-12-28T01:25:46.744Z,59.97
2016-12-28T01:26:50.310Z,59.93
2016-12-28T01:27:49.785Z,59.93
2016-12-28T01:28:43.457Z,59.96
2016-12-28T01:29:44.042Z,59.97
2016-12-28T01:30:39.532Z,59.95
2016-12-28T01:31:44.295Z,59.97
2016-12-28T01:32:49.317Z,59.93
2016-12-28T01:33:43.062Z,59.93
2016-12-28T01:34:50.409Z,59.97
2016-12-28T01:35:45.103Z,59.97
2016-12-28T01:36:49.610Z,59.98
2016-12-28T01:37:39.420Z,59.98
2016-12-28T01:38:45.846Z,59.95
2016-12-28T01:39:49.919Z,59.94
2016-12-28T01:40:45.833Z,59.97
2016-12-28T01:41:38.928Z,59.94
2016-12-28T01:42:49.855Z,59.93
2016-12-28T01:43:44.806Z,59.94
2016-12-28T01:44:49.985Z,59.95
2016-12-28T01:45:49.967Z,60.00
2016-12-28T01:46:44.766Z,59.99
2016-12-28T01:47:44.738Z,60.00
2016-12-28T01:48:46.400Z,59.98
2016-12-28T01:49:50.453Z,60.00
2016-12-28T01:50:29.081Z,59.98
2016-12-28T01:51:49.909Z,60.01
2016-12-28T01:52:45.465Z,60.03
2016-12-28T01:53:49.828Z,60.03
2016-12-28T01:54:47.993Z,60.04
2016-12-28T01:55:49.035Z,60.04
2016-12-28T01:56:47.152Z,60.04
2016-12-28T01:57:48.536Z,60.06
2016-12-28T01:58:55.917Z,60.06
2016-12-28T01:59:33.442Z,60.08
2016-12-28T02:00:41.121Z,60.06
2016-12-28T02:01:45.958Z,60.06
2016-12-28T02:02:50.587Z,60.06
2016-12-28T02:03:40.909Z,60.07
2016-12-28T02:04:49.422Z,60.11
2016-12-28T02:05:45.166Z,60.11
2016-12-28T02:06:48.395Z,60.09
2016-12-28T02:07:44.619Z,60.09
2016-12-28T02:08:47.163Z,60.11
2016-12-28T02:09:45.147Z,60.11
2016-12-28T02:10:39.422Z,60.12
2016-12-28T02:11:45.192Z,60.12
2016-12-28T02:12:47.106Z,60.13
2016-12-28T02:13:47.633Z,60.12
2016-12-28T02:14:44.296Z,60.10
2016-12-28T02:16:03.656Z,60.13
2016-12-28T02:16:46.761Z,60.12
2016-12-28T02:17:51.051Z,60.17
2016-12-28T02:18:50.589Z,60.15
2016-12-28T02:19:44.260Z,60.13
2016-12-28T02:20:42.792Z,60.11
2016-12-28T02:21:46.906Z,60.13
2016-12-28T02:22:41.395Z,60.16
2016-12-28T02:23:48.423Z,60.13
2016-12-28T02:24:44.615Z,60.13
2016-12-28T02:25:46.197Z,60.13
2016-12-28T02:26:48.588Z,60.13
2016-12-28T02:27:50.924Z,60.12
2016-12-28T02:28:43.886Z,60.14
2016-12-28T02:29:35.870Z,60.17
2016-12-28T02:30:45.654Z,60.20
2016-12-28T02:31:45.289Z,60.19
2016-12-28T02:32:49.711Z,60.20
2016-12-28T02:33:46.162Z,60.22
2016-12-28T02:34:41.042Z,60.21
2016-12-28T02:35:42.749Z,60.22
2016-12-28T02:36:44.579Z,60.24
2016-12-28T02:37:51.131Z,60.25
2016-12-28T02:38:40.618Z,60.24
2016-12-28T02:39:43.935Z,60.26
2016-12-28T02:40:44.469Z,60.26
2016-12-28T02:41:47.517Z,60.28
2016-12-28T02:42:53.943Z,60.32
2016-12-28T02:43:46.170Z,60.29
2016-12-28T02:44:49.835Z,60.29
2016-12-28T02:45:44.584Z,60.31
2016-12-28T02:46:44.949Z,60.32
2016-12-28T02:47:44.369Z,60.35
2016-12-28T02:48:43.991Z,60.38
2016-12-28T02:49:46.436Z,60.37
2016-12-28T02:50:48.233Z,60.38
2016-12-28T02:51:44.692Z,60.43
2016-12-28T02:52:44.680Z,60.47
2016-12-28T02:53:50.472Z,60.43
2016-12-28T02:54:43.821Z,60.44
2016-12-28T02:55:49.209Z,60.47
2016-12-28T02:56:55.573Z,60.51
2016-12-28T02:57:50.721Z,60.54
2016-12-28T02:58:40.759Z,60.53
2016-12-28T02:59:59.840Z,60.55
2016-12-28T03:00:51.313Z,60.61
2016-12-28T03:01:47.508Z,60.64
2016-12-28T03:02:58.198Z,60.68
2016-12-28T03:03:47.583Z,60.68
2016-12-28T03:04:44.415Z,60.73
2016-12-28T03:05:59.291Z,60.69
2016-12-28T03:06:45.875Z,60.73
2016-12-28T03:07:51.626Z,60.73
2016-12-28T03:08:50.599Z,60.73
2016-12-28T03:09:50.538Z,60.71
2016-12-28T03:10:44.544Z,60.71
2016-12-28T03:11:51.922Z,60.70
2016-12-28T03:12:43.706Z,60.70
2016-12-28T03:13:48.948Z,60.70
2016-12-28T03:14:49.717Z,60.75
2016-12-28T03:15:45.284Z,60.73
2016-12-28T03:16:44.734Z,60.72
2016-12-28T03:17:44.482Z,60.74
2016-12-28T03:18:56.280Z,60.72
2016-12-28T03:19:44.581Z,60.74
2016-12-28T03:20:51.893Z,60.70
2016-12-28T03:21:49.238Z,60.75
2016-12-28T03:22:54.852Z,60.81
2016-12-28T03:23:41.364Z,60.74
2016-12-28T03:24:52.001Z,60.75
2016-12-28T03:25:45.557Z,60.78
2016-12-28T03:26:49.721Z,60.81
2016-12-28T03:27:47.019Z,60.80
2016-12-28T03:28:47.823Z,60.78
2016-12-28T03:29:50.614Z,60.65
2016-12-28T03:30:39.837Z,59.87
2016-12-28T03:31:45.280Z,59.93
2016-12-28T03:32:48.712Z,60.53
2016-12-28T03:33:49.465Z,60.72
2016-12-28T03:34:44.699Z,60.72
2016-12-28T03:35:44.538Z,60.76
2016-12-28T03:36:42.856Z,60.82
2016-12-28T03:37:45.179Z,60.83
2016-12-28T03:38:41.980Z,60.86
2016-12-28T03:39:48.979Z,60.88
2016-12-28T03:40:44.549Z,60.85
2016-12-28T03:41:47.706Z,60.87
2016-12-28T03:42:44.729Z,60.86
2016-12-28T03:43:39.707Z,60.83
2016-12-28T03:44:44.354Z,60.85
2016-12-28T03:46:27.705Z,60.87
2016-12-28T03:46:44.398Z,60.86
2016-12-28T03:47:45.234Z,60.87
2016-12-28T03:48:44.605Z,60.87
2016-12-28T03:49:40.849Z,60.87
2016-12-28T03:50:46.435Z,60.92
2016-12-28T03:51:49.518Z,60.85
2016-12-28T03:52:44.363Z,60.86
2016-12-28T03:53:51.235Z,60.81
2016-12-28T03:54:43.483Z,60.83
2016-12-28T03:55:50.046Z,60.90
2016-12-28T03:56:47.407Z,60.84
2016-12-28T03:57:51.263Z,60.83
2016-12-28T03:58:46.363Z,60.85
2016-12-28T03:59:38.364Z,60.86
2016-12-28T04:00:45.456Z,60.89
2016-12-28T04:01:51.435Z,60.82
2016-12-28T04:02:43.575Z,60.85
2016-12-28T04:03:44.117Z,60.86
2016-12-28T04:04:40.055Z,60.80
2016-12-28T04:05:55.267Z,60.84
2016-12-28T04:06:49.432Z,60.89
2016-12-28T04:07:41.556Z,60.89
2016-12-28T04:08:45.604Z,60.83
2016-12-28T04:09:45.714Z,60.85
2016-12-28T04:10:44.528Z,59.90
2016-12-28T04:11:51.213Z,59.72
2016-12-28T04:12:50.416Z,59.56
2016-12-28T04:13:47.422Z,59.52
2016-12-28T04:14:52.360Z,59.51
2016-12-28T04:15:44.800Z,59.42
2016-12-28T04:16:45.472Z,59.55
2016-12-28T04:17:44.212Z,60.38
2016-12-28T04:18:44.740Z,60.58
2016-12-28T04:19:40.420Z,60.71
2016-12-28T04:20:44.650Z,60.72
2016-12-28T04:21:55.899Z,60.81
2016-12-28T04:22:49.448Z,60.81
2016-12-28T04:23:50.524Z,60.77
2016-12-28T04:24:45.328Z,60.80
2016-12-28T04:25:39.840Z,60.81
2016-12-28T04:26:40.408Z,60.84
2016-12-28T04:28:06.740Z,60.84
2016-12-28T04:29:01.206Z,60.84
2016-12-28T04:29:52.977Z,60.87
2016-12-28T04:30:50.298Z,60.85
2016-12-28T04:31:49.864Z,60.86
2016-12-28T04:32:41.979Z,60.85
2016-12-28T04:33:45.362Z,60.90
2016-12-28T04:34:46.829Z,60.88
2016-12-28T04:35:41.665Z,60.89
2016-12-28T04:36:49.848Z,60.90
2016-12-28T04:37:45.701Z,60.93
2016-12-28T04:38:45.610Z,60.93
2016-12-28T04:39:50.964Z,60.91
2016-12-28T04:40:49.932Z,60.94
2016-12-28T04:41:41.741Z,60.93
2016-12-28T04:43:03.963Z,60.94
2016-12-28T04:43:50.174Z,60.93
2016-12-28T04:44:46.801Z,60.94
2016-12-28T04:45:46.908Z,60.95
2016-12-28T04:46:48.519Z,60.95
2016-12-28T04:47:45.809Z,60.94
2016-12-28T04:48:41.466Z,60.93
2016-12-28T04:49:43.635Z,60.94
2016-12-28T04:50:46.393Z,60.95
2016-12-28T04:51:52.499Z,60.97
2016-12-28T04:52:51.274Z,60.96
2016-12-28T04:53:45.248Z,60.94
2016-12-28T04:54:39.921Z,60.94
2016-12-28T04:55:47.049Z,60.97
2016-12-28T04:56:44.558Z,60.95
2016-12-28T04:57:44.631Z,60.92
2016-12-28T04:58:34.177Z,60.95
2016-12-28T04:59:38.767Z,60.98
2016-12-28T05:00:44.866Z,60.96
2016-12-28T05:01:32.024Z,60.92
2016-12-28T05:02:44.888Z,60.94
2016-12-28T05:04:00.228Z,60.98
2016-12-28T05:04:39.812Z,60.98
2016-12-28T05:05:44.519Z,60.96
2016-12-28T05:06:40.325Z,60.92
2016-12-28T05:07:50.338Z,60.95
2016-12-28T05:08:50.826Z,60.98
2016-12-28T05:09:46.647Z,61.01
2016-12-28T05:10:44.930Z,61.02
2016-12-28T05:11:44.613Z,61.00
2016-12-28T05:12:54.750Z,60.98
2016-12-28T05:13:51.692Z,61.00
2016-12-28T05:15:37.550Z,61.08
2016-12-28T05:15:40.520Z,61.03
2016-12-28T05:16:39.733Z,61.01
2016-12-28T05:17:57.649Z,61.03
2016-12-28T05:18:54.225Z,61.04
2016-12-28T05:19:49.129Z,61.05
2016-12-28T05:20:39.662Z,61.02
2016-12-28T05:21:53.667Z,61.02
2016-12-28T05:22:49.814Z,61.03
2016-12-28T05:23:48.688Z,61.07
2016-12-28T05:24:49.871Z,61.06
2016-12-28T05:25:54.689Z,61.06
2016-12-28T05:26:48.504Z,61.04
2016-12-28T05:27:28.938Z,61.06
2016-12-28T05:28:41.225Z,61.07
2016-12-28T05:29:58.846Z,61.09
2016-12-28T05:30:49.341Z,61.06
2016-12-28T05:31:51.022Z,61.09
2016-12-28T05:32:44.383Z,61.09
2016-12-28T05:33:51.430Z,61.05
2016-12-28T05:34:47.527Z,61.05
2016-12-28T05:35:50.488Z,61.02
2016-12-28T05:36:47.157Z,61.08
2016-12-28T05:37:45.813Z,61.06
2016-12-28T05:38:47.724Z,61.03
2016-12-28T05:39:43.431Z,61.08
2016-12-28T05:41:05.399Z,61.01
2016-12-28T05:41:52.292Z,61.05
2016-12-28T05:42:31.778Z,61.03
2016-12-28T05:43:40.482Z,61.03
2016-12-28T05:44:45.937Z,60.99
2016-12-28T05:45:50.585Z,61.04
2016-12-28T05:46:55.501Z,61.00
2016-12-28T05:47:54.234Z,61.02
2016-12-28T05:48:38.516Z,61.00
2016-12-28T05:49:39.534Z,61.01
2016-12-28T05:50:44.883Z,61.00
2016-12-28T05:52:00.835Z,60.98
2016-12-28T05:52:43.496Z,61.04
2016-12-28T05:53:57.518Z,61.01
2016-12-28T05:54:40.162Z,61.06
2016-12-28T05:55:49.097Z,61.07
2016-12-28T05:56:50.523Z,61.05
2016-12-28T05:57:56.841Z,61.05
2016-12-28T05:58:55.239Z,61.06
2016-12-28T05:59:51.727Z,61.10
2016-12-28T06:00:43.870Z,61.11
2016-12-28T06:01:46.297Z,61.09
2016-12-28T06:02:39.728Z,61.05
2016-12-28T06:03:47.758Z,61.09
2016-12-28T06:04:52.891Z,61.08
2016-12-28T06:05:45.956Z,61.07
2016-12-28T06:07:20.513Z,61.10
2016-12-28T06:07:48.634Z,61.10
2016-12-28T06:08:42.955Z,61.09
2016-12-28T06:09:39.316Z,61.13
2016-12-28T06:10:43.582Z,61.14
2016-12-28T06:11:50.125Z,61.11
2016-12-28T06:12:44.258Z,61.11
2016-12-28T06:13:49.796Z,61.14
2016-12-28T06:14:53.004Z,61.13
2016-12-28T06:15:41.459Z,61.15
2016-12-28T06:16:49.776Z,61.15
2016-12-28T06:17:49.552Z,61.13
2016-12-28T06:18:56.166Z,61.12
2016-12-28T06:19:41.285Z,61.14
2016-12-28T06:20:55.119Z,61.13
2016-12-28T06:21:55.581Z,61.15
2016-12-28T06:22:39.648Z,61.09
2016-12-28T06:23:44.173Z,61.14
2016-12-28T06:24:43.625Z,61.16
2016-12-28T06:25:51.159Z,61.17
2016-12-28T06:26:46.580Z,61.10
2016-12-28T06:27:41.074Z,61.12
2016-12-28T06:28:46.943Z,61.12
2016-12-28T06:29:43.132Z,61.14
2016-12-28T06:30:39.574Z,61.11
2016-12-28T06:31:49.722Z,61.08
2016-12-28T06:32:44.596Z,61.14
2016-12-28T06:33:44.990Z,61.14
2016-12-28T06:34:45.588Z,61.14
2016-12-28T06:35:46.577Z,61.15
2016-12-28T06:36:46.778Z,61.12
2016-12-28T06:37:50.491Z,61.16
2016-12-28T06:38:57.230Z,61.17
2016-12-28T06:39:49.988Z,61.14
2016-12-28T06:40:38.972Z,61.05
2016-12-28T06:41:47.150Z,60.18
2016-12-28T06:42:42.857Z,60.09
2016-12-28T06:43:48.056Z,60.86
2016-12-28T06:45:40.866Z,61.15
2016-12-28T06:46:58.893Z,61.23
2016-12-28T06:47:52.763Z,61.28
2016-12-28T06:48:56.462Z,61.30
2016-12-28T06:49:46.368Z,61.29
2016-12-28T06:50:49.398Z,61.31
2016-12-28T06:51:57.792Z,61.33
2016-12-28T06:52:51.619Z,61.32
2016-12-28T06:53:48.836Z,61.32
2016-12-28T06:54:44.691Z,61.35
2016-12-28T06:55:48.778Z,61.35
2016-12-28T06:56:44.837Z,61.39
2016-12-28T06:57:34.301Z,61.38
2016-12-28T06:58:43.841Z,60.48
2016-12-28T06:59:48.931Z,60.21
2016-12-28T07:00:52.275Z,61.09
2016-12-28T07:01:48.556Z,61.22
2016-12-28T07:03:05.497Z,61.32
2016-12-28T07:04:06.853Z,61.19
2016-12-28T07:04:45.284Z,60.36
2016-12-28T07:05:44.756Z,60.18
2016-12-28T07:06:50.924Z,60.13
2016-12-28T07:07:33.601Z,60.98
2016-12-28T07:08:44.565Z,61.15
2016-12-28T07:09:47.202Z,61.26
2016-12-28T07:10:48.153Z,61.26
2016-12-28T07:11:48.848Z,61.39
2016-12-28T07:12:59.000Z,61.34
2016-12-28T07:13:41.607Z,61.32
2016-12-28T07:14:24.496Z,61.37
2016-12-28T07:15:39.829Z,61.32
2016-12-28T07:16:37.823Z,61.35
2016-12-28T07:17:41.784Z,61.42
2016-12-28T07:18:53.915Z,61.35
2016-12-28T07:19:16.241Z,61.33
2016-12-28T07:20:51.189Z,61.35
2016-12-28T07:21:35.048Z,61.35
2016-12-28T07:22:47.469Z,61.37
2016-12-28T07:23:50.003Z,61.36
2016-12-28T07:24:47.648Z,61.32
2016-12-28T07:25:52.561Z,61.37
2016-12-28T07:26:49.737Z,61.35
2016-12-28T07:27:38.110Z,61.35
2016-12-28T07:28:46.868Z,61.36
2016-12-28T07:29:37.529Z,61.35
2016-12-28T07:30:40.398Z,61.36
2016-12-28T07:31:50.990Z,61.38
2016-12-28T07:32:46.427Z,61.38
2016-12-28T07:33:49.491Z,61.40
2016-12-28T07:35:02.876Z,61.38
2016-12-28T07:35:50.830Z,61.40
2016-12-28T07:37:24.847Z,61.39
2016-12-28T07:37:51.633Z,61.35
2016-12-28T07:38:31.079Z,61.39
2016-12-28T07:39:51.911Z,61.36
2016-12-28T07:40:55.496Z,61.36
2016-12-28T07:41:44.509Z,61.37
2016-12-28T07:42:56.475Z,61.42
2016-12-28T07:43:45.411Z,61.41
2016-12-28T07:44:57.516Z,61.40
2016-12-28T07:45:49.151Z,61.39
2016-12-28T07:46:59.899Z,61.40
2016-12-28T07:47:30.712Z,61.39
2016-12-28T07:48:46.316Z,61.41
2016-12-28T07:49:45.407Z,61.42
2016-12-28T07:50:41.438Z,61.42
2016-12-28T07:51:46.516Z,61.44
2016-12-28T07:52:39.129Z,61.41
2016-12-28T07:53:45.036Z,61.42
2016-12-28T07:54:49.924Z,61.43
2016-12-28T07:55:48.014Z,61.46
2016-12-28T07:56:44.045Z,61.51
2016-12-28T07:57:43.339Z,61.47
2016-12-28T07:58:39.923Z,61.50
2016-12-28T07:59:51.919Z,61.50
2016-12-28T08:00:40.099Z,61.47
2016-12-28T08:01:42.953Z,61.49
2016-12-28T08:02:51.919Z,60.53
2016-12-28T08:03:49.676Z,60.26
2016-12-28T08:04:46.412Z,60.16
2016-12-28T08:05:48.961Z,60.14
2016-12-28T08:06:40.570Z,60.13
2016-12-28T08:07:55.487Z,60.08
2016-12-28T08:08:51.990Z,60.41
2016-12-28T08:09:41.496Z,60.97
2016-12-28T08:10:58.047Z,61.23
2016-12-28T08:11:52.513Z,61.31
2016-12-28T08:12:53.245Z,61.39
2016-12-28T08:13:19.357Z,61.38
2016-12-28T08:14:46.196Z,61.38
2016-12-28T08:15:49.531Z,61.43
2016-12-28T08:16:39.619Z,61.42
2016-12-28T08:17:49.986Z,61.42
2016-12-28T08:18:55.519Z,61.42
2016-12-28T08:19:44.484Z,61.48
2016-12-28T08:20:52.146Z,61.42
2016-12-28T08:21:48.617Z,61.46
2016-12-28T08:22:44.463Z,61.46
2016-12-28T08:24:01.017Z,61.45
2016-12-28T08:24:44.976Z,61.43
2016-12-28T08:25:43.937Z,61.47
2016-12-28T08:26:48.027Z,61.45
2016-12-28T08:27:51.615Z,61.44
2016-12-28T08:28:39.276Z,61.49
2016-12-28T08:29:31.561Z,61.49
2016-12-28T08:30:45.026Z,61.54
2016-12-28T08:31:38.538Z,61.53
2016-12-28T08:32:47.116Z,61.52
2016-12-28T08:33:49.649Z,61.53
2016-12-28T08:34:44.815Z,61.59
2016-12-28T08:35:40.692Z,61.55
2016-12-28T08:36:48.509Z,61.58
2016-12-28T08:37:45.216Z,61.61
2016-12-28T08:39:15.587Z,61.62
2016-12-28T08:39:49.629Z,61.61
2016-12-28T08:40:35.532Z,61.61
2016-12-28T08:41:52.447Z,61.59
2016-12-28T08:42:56.482Z,61.60
2016-12-28T08:43:46.061Z,61.61
2016-12-28T08:44:50.617Z,61.61
2016-12-28T08:45:46.535Z,61.64
2016-12-28T08:46:58.669Z,61.63
2016-12-28T08:47:43.063Z,61.64
2016-12-28T08:48:34.534Z,61.59
2016-12-28T08:49:31.818Z,61.58
2016-12-28T08:50:39.719Z,61.65
2016-12-28T08:51:44.514Z,61.65
2016-12-28T08:52:45.462Z,61.62
2016-12-28T08:53:38.880Z,61.60
2016-12-28T08:54:44.877Z,61.62
2016-12-28T08:55:42.397Z,61.63
2016-12-28T08:56:51.849Z,61.61
2016-12-28T08:57:34.878Z,61.57
2016-12-28T08:58:43.648Z,61.56
2016-12-28T08:59:46.000Z,61.54
2016-12-28T09:00:44.423Z,61.56
2016-12-28T09:01:39.874Z,61.57
2016-12-28T09:02:48.246Z,61.60
2016-12-28T09:03:39.659Z,61.58
2016-12-28T09:04:44.765Z,61.63
2016-12-28T09:05:47.779Z,61.64
2016-12-28T09:06:44.338Z,61.56
2016-12-28T09:07:33.095Z,61.57
2016-12-28T09:08:41.828Z,61.58
2016-12-28T09:09:42.768Z,61.58
2016-12-28T09:10:51.556Z,61.61
2016-12-28T09:11:39.021Z,61.60
2016-12-28T09:12:45.540Z,61.56
2016-12-28T09:13:46.200Z,61.62
2016-12-28T09:14:38.524Z,61.56
2016-12-28T09:15:38.366Z,61.58
2016-12-28T09:16:39.489Z,61.63
2016-12-28T09:17:42.567Z,61.62
2016-12-28T09:18:44.584Z,61.55
2016-12-28T09:19:40.973Z,61.59
2016-12-28T09:20:41.107Z,61.59
2016-12-28T09:21:41.354Z,61.55
2016-12-28T09:22:30.549Z,61.56
2016-12-28T09:23:18.598Z,61.65
2016-12-28T09:24:37.063Z,61.64
2016-12-28T09:25:37.605Z,61.58
2016-12-28T09:26:38.489Z,61.65
2016-12-28T09:27:46.176Z,61.64
2016-12-28T09:28:43.720Z,61.64
2016-12-28T09:29:48.842Z,61.72
2016-12-28T09:30:40.136Z,61.71
2016-12-28T09:31:33.213Z,61.71
2016-12-28T09:32:44.856Z,61.68
2016-12-28T09:33:39.782Z,61.70
2016-12-28T09:34:39.900Z,61.74
2016-12-28T09:35:33.762Z,61.74
2016-12-28T09:36:34.187Z,61.69
2016-12-28T09:37:38.640Z,61.71
2016-12-28T09:38:45.038Z,61.74
2016-12-28T09:39:45.017Z,61.71
2016-12-28T09:40:48.312Z,61.73
2016-12-28T09:41:40.673Z,61.73
2016-12-28T09:42:45.531Z,61.75
2016-12-28T09:43:40.333Z,61.77
2016-12-28T09:44:44.362Z,61.71
2016-12-28T09:45:40.056Z,61.78
2016-12-28T09:46:37.781Z,61.75
2016-12-28T09:47:40.738Z,61.70
2016-12-28T09:48:39.619Z,61.73
2016-12-28T09:49:28.957Z,61.71
2016-12-28T09:50:36.526Z,61.78
2016-12-28T09:51:41.532Z,61.81
2016-12-28T09:52:34.099Z,61.75
2016-12-28T09:53:48.389Z,61.71
2016-12-28T09:54:40.736Z,61.76
2016-12-28T09:55:38.261Z,61.69
2016-12-28T09:56:29.750Z,61.72
2016-12-28T09:57:35.848Z,61.77
2016-12-28T09:58:35.665Z,61.79
2016-12-28T09:59:33.695Z,61.77
2016-12-28T10:00:39.003Z,61.79
2016-12-28T10:01:30.875Z,61.73
2016-12-28T10:02:42.521Z,61.73
2016-12-28T10:03:34.543Z,61.74
2016-12-28T10:04:38.768Z,61.83
2016-12-28T10:05:41.062Z,61.85
2016-12-28T10:06:32.371Z,61.85
2016-12-28T10:07:26.728Z,61.82
2016-12-28T10:08:44.140Z,61.85
2016-12-28T10:09:43.107Z,61.81
2016-12-28T10:10:33.374Z,61.75
2016-12-28T10:11:33.969Z,60.85
2016-12-28T10:12:39.960Z,60.55
2016-12-28T10:13:39.839Z,60.47
2016-12-28T10:14:39.871Z,60.41
2016-12-28T10:15:29.137Z,60.46
2016-12-28T10:16:47.141Z,61.22
2016-12-28T10:17:39.699Z,61.47
2016-12-28T10:18:34.662Z,61.53
2016-12-28T10:19:41.382Z,61.56
2016-12-28T10:20:47.140Z,61.58
2016-12-28T10:21:27.393Z,61.58
2016-12-28T10:22:41.393Z,61.60
2016-12-28T10:23:36.497Z,53.51
2016-12-28T10:24:35.945Z,44.70
2016-12-28T10:25:40.261Z,45.82
2016-12-28T10:26:41.227Z,46.43
2016-12-28T10:27:41.462Z,46.65
2016-12-28T10:28:49.883Z,45.39
2016-12-28T10:29:40.242Z,45.33
2016-12-28T10:30:45.622Z,48.77
2016-12-28T10:31:34.781Z,48.70
2016-12-28T10:32:45.631Z,48.99
2016-12-28T10:33:34.554Z,49.13
2016-12-28T10:34:55.842Z,48.79
2016-12-28T10:35:45.807Z,47.82
2016-12-28T10:36:47.597Z,47.16
2016-12-28T10:37:39.779Z,46.09
2016-12-28T10:38:39.887Z,45.46
2016-12-28T10:39:39.479Z,45.27
2016-12-28T10:40:39.422Z,44.76
2016-12-28T10:41:34.400Z,44.71
2016-12-28T10:42:44.181Z,44.36
2016-12-28T10:43:34.757Z,44.01
2016-12-28T10:44:36.031Z,44.00
2016-12-28T10:45:49.062Z,43.61
2016-12-28T10:46:37.082Z,43.87
2016-12-28T10:47:36.832Z,43.20
2016-12-28T10:48:39.637Z,43.44
2016-12-28T10:49:42.635Z,42.81
2016-12-28T10:50:42.406Z,43.10
2016-12-28T10:51:39.581Z,45.24
2016-12-28T10:52:50.210Z,45.70
2016-12-28T10:53:51.291Z,46.96
2016-12-28T10:54:39.819Z,47.58
2016-12-28T10:55:39.936Z,48.14
2016-12-28T10:56:46.779Z,47.59
2016-12-28T10:57:39.877Z,48.45
2016-12-28T10:58:41.373Z,47.96
2016-12-28T10:59:38.626Z,48.16
2016-12-28T11:00:40.758Z,48.17
2016-12-28T11:01:36.848Z,48.67
2016-12-28T11:02:52.590Z,48.79
2016-12-28T11:03:33.812Z,48.62
2016-12-28T11:04:43.102Z,48.10
2016-12-28T11:05:38.290Z,48.60
2016-12-28T11:06:41.224Z,48.03
2016-12-28T11:07:45.218Z,47.72
2016-12-28T11:08:34.204Z,47.82
2016-12-28T11:09:42.924Z,47.93
2016-12-28T11:10:54.651Z,47.78
2016-12-28T11:11:45.129Z,47.85
2016-12-28T11:12:30.084Z,47.91
2016-12-28T11:13:44.885Z,47.96
2016-12-28T11:14:40.705Z,48.12
2016-12-28T11:15:50.248Z,48.74
2016-12-28T11:16:44.002Z,49.12
2016-12-28T11:17:45.639Z,49.12
2016-12-28T11:18:41.352Z,49.25
2016-12-28T11:19:48.214Z,49.37
2016-12-28T11:20:48.596Z,49.54
2016-12-28T11:21:36.623Z,49.60
2016-12-28T11:23:06.837Z,49.58
2016-12-28T11:23:29.635Z,49.72
2016-12-28T11:24:50.386Z,49.74
2016-12-28T11:25:45.293Z,49.87
2016-12-28T11:26:18.778Z,49.91
2016-12-28T11:27:54.757Z,49.98
2016-12-28T11:28:44.745Z,50.12
2016-12-28T11:29:51.019Z,50.07
2016-12-28T11:30:45.470Z,50.11
2016-12-28T11:31:55.820Z,50.30
2016-12-28T11:32:44.641Z,50.25
2016-12-28T11:33:49.674Z,50.31
2016-12-28T11:34:44.606Z,50.43
2016-12-28T11:35:49.551Z,50.46
2016-12-28T11:36:37.971Z,50.48
2016-12-28T11:37:54.283Z,50.60
2016-12-28T11:38:38.049Z,50.18
2016-12-28T11:39:50.574Z,50.77
2016-12-28T11:40:45.567Z,50.63
2016-12-28T11:41:48.612Z,50.95
2016-12-28T11:43:00.581Z,51.05
2016-12-28T11:43:52.965Z,51.25
2016-12-28T11:44:58.105Z,51.39
2016-12-28T11:45:37.964Z,51.43
2016-12-28T11:46:44.746Z,51.56
2016-12-28T11:47:55.585Z,51.63
2016-12-28T11:48:43.047Z,51.59
2016-12-28T11:49:38.192Z,51.61
2016-12-28T11:50:57.913Z,51.63
2016-12-28T11:51:48.539Z,51.62
2016-12-28T11:52:43.939Z,51.61
2016-12-28T11:53:46.572Z,51.71
2016-12-28T11:54:49.819Z,51.82
2016-12-28T11:55:44.135Z,51.69
2016-12-28T11:56:45.175Z,51.77
2016-12-28T11:57:33.677Z,51.75
2016-12-28T11:58:52.575Z,51.87
2016-12-28T11:59:50.193Z,51.99
2016-12-28T12:00:39.308Z,51.98
2016-12-28T12:01:47.632Z,52.03
2016-12-28T12:02:22.021Z,52.14
2016-12-28T12:03:54.770Z,52.25
2016-12-28T12:04:48.071Z,52.33
2016-12-28T12:05:47.376Z,52.29
2016-12-28T12:06:49.950Z,52.41
2016-12-28T12:07:39.718Z,52.44
2016-12-28T12:08:47.518Z,52.49
2016-12-28T12:09:41.468Z,52.60
2016-12-28T12:10:48.315Z,52.64
2016-12-28T12:11:49.285Z,52.66
2016-12-28T12:12:39.645Z,52.76
2016-12-28T12:13:42.876Z,52.88
2016-12-28T12:14:46.298Z,52.89
2016-12-28T12:15:49.392Z,52.93
2016-12-28T12:16:55.413Z,53.03
2016-12-28T12:17:52.265Z,53.14
2016-12-28T12:18:46.207Z,53.15
2016-12-28T12:19:44.343Z,53.23
2016-12-28T12:20:39.034Z,53.18
2016-12-28T12:21:45.643Z,53.28
2016-12-28T12:22:52.059Z,53.30
2016-12-28T12:23:47.252Z,53.39
2016-12-28T12:24:38.837Z,53.44
2016-12-28T12:25:54.126Z,53.53
2016-12-28T12:26:50.002Z,53.52
2016-12-28T12:27:44.038Z,53.58
2016-12-28T12:28:48.426Z,53.62
2016-12-28T12:29:40.310Z,53.66
2016-12-28T12:30:44.173Z,53.53
2016-12-28T12:31:48.636Z,52.90
2016-12-28T12:32:41.397Z,52.68
2016-12-28T12:33:44.903Z,52.66
2016-12-28T12:34:55.460Z,52.61
2016-12-28T12:35:51.058Z,52.69
2016-12-28T12:36:37.503Z,52.72
2016-12-28T12:37:48.076Z,52.72
2016-12-28T12:39:00.040Z,52.72
2016-12-28T12:39:52.687Z,53.03
2016-12-28T12:40:48.243Z,53.65
2016-12-28T12:41:55.558Z,53.87
2016-12-28T12:42:50.052Z,53.97
2016-12-28T12:43:38.549Z,54.06
2016-12-28T12:44:48.078Z,54.12
2016-12-28T12:45:42.281Z,54.15
2016-12-28T12:46:35.186Z,54.20
2016-12-28T12:47:43.338Z,54.30
2016-12-28T12:48:46.338Z,54.37
2016-12-28T12:49:47.021Z,54.31
2016-12-28T12:50:44.350Z,54.33
2016-12-28T12:51:49.944Z,54.33
2016-12-28T12:52:45.479Z,54.41
2016-12-28T12:53:43.602Z,54.46